sensor_id;sensor_type;location;lat;lon;timestamp;pressure;altitude;pressure_sealevel;temperature;humidity
70103;BME280;57470;50.034;15.256;2023-09-19T00:00:57;98811.69;;;20.47;98.97
70103;BME280;57470;50.034;15.256;2023-09-19T00:03:23;98819.06;;;20.53;98.12
70103;BME280;57470;50.034;15.256;2023-09-19T00:05:48;98813.47;;;20.54;98.73
70103;BME280;57470;50.034;15.256;2023-09-19T00:08:15;98805.91;;;20.50;98.46
70103;BME280;57470;50.034;15.256;2023-09-19T00:10:42;98805.63;;;20.45;98.22
70103;BME280;57470;50.034;15.256;2023-09-19T00:13:08;98811.78;;;20.39;98.23
70103;BME280;57470;50.034;15.256;2023-09-19T00:15:39;98797.09;;;20.33;98.71
70103;BME280;57470;50.034;15.256;2023-09-19T00:18:06;98796.19;;;20.41;98.15
70103;BME280;57470;50.034;15.256;2023-09-19T00:20:31;98796.19;;;20.41;98.50
70103;BME280;57470;50.034;15.256;2023-09-19T00:22:57;98805.81;;;20.43;98.59
70103;BME280;57470;50.034;15.256;2023-09-19T00:25:24;98795.25;;;20.34;98.39
70103;BME280;57470;50.034;15.256;2023-09-19T00:27:51;98797.78;;;20.35;98.94
70103;BME280;57470;50.034;15.256;2023-09-19T00:30:17;98796.94;;;20.35;98.34
70103;BME280;57470;50.034;15.256;2023-09-19T00:32:47;98800.81;;;20.32;98.10
70103;BME280;57470;50.034;15.256;2023-09-19T00:35:16;98794.78;;;20.30;97.46
70103;BME280;57470;50.034;15.256;2023-09-19T00:37:41;98803.78;;;20.45;97.64
70103;BME280;57470;50.034;15.256;2023-09-19T00:40:08;98792.53;;;20.34;98.40
70103;BME280;57470;50.034;15.256;2023-09-19T00:42:40;98791.56;;;20.12;98.93
70103;BME280;57470;50.034;15.256;2023-09-19T00:45:10;98789.47;;;20.22;98.32
70103;BME280;57470;50.034;15.256;2023-09-19T00:47:56;98792.97;;;20.22;98.27
70103;BME280;57470;50.034;15.256;2023-09-19T00:50:24;98796.41;;;20.16;98.39
70103;BME280;57470;50.034;15.256;2023-09-19T00:52:53;98781.78;;;20.11;98.14
70103;BME280;57470;50.034;15.256;2023-09-19T00:55:21;98798.53;;;20.06;97.89
70103;BME280;57470;50.034;15.256;2023-09-19T00:57:46;98798.31;;;19.93;97.96
70103;BME280;57470;50.034;15.256;2023-09-19T01:00:15;98800.00;;;19.94;97.44
70103;BME280;57470;50.034;15.256;2023-09-19T01:02:42;98793.56;;;19.95;97.04
70103;BME280;57470;50.034;15.256;2023-09-19T01:05:08;98797.03;;;19.81;97.37
70103;BME280;57470;50.034;15.256;2023-09-19T01:07:35;98799.69;;;19.89;97.19
70103;BME280;57470;50.034;15.256;2023-09-19T01:10:05;98789.97;;;19.80;97.20
70103;BME280;57470;50.034;15.256;2023-09-19T01:15:19;98792.63;;;19.65;98.42
70103;BME280;57470;50.034;15.256;2023-09-19T01:17:53;98800.22;;;19.62;97.56
70103;BME280;57470;50.034;15.256;2023-09-19T01:20:57;98783.69;;;19.65;96.89
70103;BME280;57470;50.034;15.256;2023-09-19T01:26:42;98794.16;;;19.60;97.01
70103;BME280;57470;50.034;15.256;2023-09-19T01:29:38;98793.03;;;19.54;96.27
70103;BME280;57470;50.034;15.256;2023-09-19T01:32:05;98781.38;;;19.54;95.50
70103;BME280;57470;50.034;15.256;2023-09-19T01:34:50;98783.44;;;19.43;95.63
70103;BME280;57470;50.034;15.256;2023-09-19T01:37:17;98789.34;;;19.47;95.84
70103;BME280;57470;50.034;15.256;2023-09-19T01:39:50;98788.66;;;19.45;95.87
70103;BME280;57470;50.034;15.256;2023-09-19T01:42:39;98793.94;;;19.38;95.76
70103;BME280;57470;50.034;15.256;2023-09-19T01:45:13;98793.34;;;19.20;97.16
70103;BME280;57470;50.034;15.256;2023-09-19T01:47:50;98788.75;;;19.29;95.56
70103;BME280;57470;50.034;15.256;2023-09-19T01:50:42;98779.94;;;19.12;96.32
70103;BME280;57470;50.034;15.256;2023-09-19T01:53:33;98784.09;;;19.23;96.02
70103;BME280;57470;50.034;15.256;2023-09-19T01:56:01;98783.94;;;19.16;96.26
70103;BME280;57470;50.034;15.256;2023-09-19T01:58:37;98789.03;;;19.11;95.60
70103;BME280;57470;50.034;15.256;2023-09-19T02:01:05;98792.44;;;19.05;96.30
70103;BME280;57470;50.034;15.256;2023-09-19T02:03:34;98791.75;;;19.03;95.94
70103;BME280;57470;50.034;15.256;2023-09-19T02:06:00;98797.50;;;19.00;95.94
70103;BME280;57470;50.034;15.256;2023-09-19T02:08:26;98800.53;;;18.97;95.83
70103;BME280;57470;50.034;15.256;2023-09-19T02:10:52;98811.88;;;18.84;96.06
70103;BME280;57470;50.034;15.256;2023-09-19T02:13:22;98798.41;;;18.84;95.67
70103;BME280;57470;50.034;15.256;2023-09-19T02:15:54;98799.53;;;18.90;96.21
70103;BME280;57470;50.034;15.256;2023-09-19T02:18:22;98796.97;;;18.57;96.25
70103;BME280;57470;50.034;15.256;2023-09-19T02:20:48;98791.13;;;18.13;98.75
70103;BME280;57470;50.034;15.256;2023-09-19T02:23:17;98796.25;;;18.55;97.25
70103;BME280;57470;50.034;15.256;2023-09-19T02:25:52;98793.75;;;18.46;96.51
70103;BME280;57470;50.034;15.256;2023-09-19T02:28:19;98800.44;;;18.74;96.24
70103;BME280;57470;50.034;15.256;2023-09-19T02:30:49;98792.75;;;18.47;97.36
70103;BME280;57470;50.034;15.256;2023-09-19T02:33:17;98792.56;;;18.64;96.52
70103;BME280;57470;50.034;15.256;2023-09-19T02:35:43;98790.00;;;18.71;96.40
70103;BME280;57470;50.034;15.256;2023-09-19T02:38:10;98792.25;;;18.59;96.67
70103;BME280;57470;50.034;15.256;2023-09-19T02:40:37;98787.34;;;18.63;97.57
70103;BME280;57470;50.034;15.256;2023-09-19T02:43:04;98790.00;;;18.71;97.10
70103;BME280;57470;50.034;15.256;2023-09-19T02:45:32;98793.72;;;18.70;96.92
70103;BME280;57470;50.034;15.256;2023-09-19T02:47:58;98782.34;;;18.27;98.61
70103;BME280;57470;50.034;15.256;2023-09-19T02:50:25;98786.84;;;18.43;98.54
70103;BME280;57470;50.034;15.256;2023-09-19T02:52:52;98784.34;;;18.58;97.67
70103;BME280;57470;50.034;15.256;2023-09-19T02:55:19;98794.09;;;18.67;97.67
70103;BME280;57470;50.034;15.256;2023-09-19T02:57:52;98802.47;;;18.72;97.83
70103;BME280;57470;50.034;15.256;2023-09-19T03:00:21;98796.91;;;18.73;97.06
70103;BME280;57470;50.034;15.256;2023-09-19T03:02:54;98796.25;;;18.55;97.99
70103;BME280;57470;50.034;15.256;2023-09-19T03:05:22;98788.06;;;18.41;98.56
70103;BME280;57470;50.034;15.256;2023-09-19T03:07:50;98800.63;;;18.56;98.09
70103;BME280;57470;50.034;15.256;2023-09-19T03:10:20;98796.63;;;18.36;98.40
70103;BME280;57470;50.034;15.256;2023-09-19T03:12:48;98795.59;;;18.53;98.48
70103;BME280;57470;50.034;15.256;2023-09-19T03:15:15;98792.44;;;18.58;97.68
70103;BME280;57470;50.034;15.256;2023-09-19T03:17:43;98795.13;;;18.42;98.05
70103;BME280;57470;50.034;15.256;2023-09-19T03:20:10;98795.41;;;18.55;98.19
70103;BME280;57470;50.034;15.256;2023-09-19T03:22:37;98791.91;;;18.46;98.28
70103;BME280;57470;50.034;15.256;2023-09-19T03:25:03;98800.72;;;18.24;99.10
70103;BME280;57470;50.034;15.256;2023-09-19T03:27:36;98799.50;;;18.43;99.21
70103;BME280;57470;50.034;15.256;2023-09-19T03:30:01;98798.16;;;18.30;99.23
70103;BME280;57470;50.034;15.256;2023-09-19T03:32:30;98792.59;;;18.40;98.44
70103;BME280;57470;50.034;15.256;2023-09-19T03:34:56;98801.03;;;18.29;99.05
70103;BME280;57470;50.034;15.256;2023-09-19T03:37:21;98798.69;;;18.18;99.38
70103;BME280;57470;50.034;15.256;2023-09-19T03:39:47;98799.19;;;18.29;98.90
70103;BME280;57470;50.034;15.256;2023-09-19T03:42:12;98797.63;;;18.43;97.94
70103;BME280;57470;50.034;15.256;2023-09-19T03:44:37;98802.69;;;18.38;98.11
70103;BME280;57470;50.034;15.256;2023-09-19T03:47:03;98799.66;;;18.41;98.31
70103;BME280;57470;50.034;15.256;2023-09-19T03:49:30;98794.94;;;18.43;98.11
70103;BME280;57470;50.034;15.256;2023-09-19T03:51:55;98795.13;;;18.42;97.48
70103;BME280;57470;50.034;15.256;2023-09-19T03:54:21;98792.09;;;18.28;97.12
70103;BME280;57470;50.034;15.256;2023-09-19T03:56:46;98801.97;;;18.52;96.93
70103;BME280;57470;50.034;15.256;2023-09-19T03:59:12;98808.41;;;18.43;96.94
70103;BME280;57470;50.034;15.256;2023-09-19T04:01:37;98806.56;;;18.52;97.21
70103;BME280;57470;50.034;15.256;2023-09-19T04:04:03;98807.03;;;18.55;96.47
70103;BME280;57470;50.034;15.256;2023-09-19T04:06:36;98811.56;;;18.71;96.55
70103;BME280;57470;50.034;15.256;2023-09-19T04:09:03;98809.25;;;18.68;96.38
70103;BME280;57470;50.034;15.256;2023-09-19T04:11:29;98806.03;;;18.48;97.25
70103;BME280;57470;50.034;15.256;2023-09-19T04:13:56;98810.91;;;18.69;96.19
70103;BME280;57470;50.034;15.256;2023-09-19T04:16:21;98817.16;;;18.61;96.40
70103;BME280;57470;50.034;15.256;2023-09-19T04:18:46;98801.50;;;18.49;96.28
70103;BME280;57470;50.034;15.256;2023-09-19T04:21:12;98811.09;;;18.43;97.59
70103;BME280;57470;50.034;15.256;2023-09-19T04:23:37;98811.09;;;18.67;96.98
70103;BME280;57470;50.034;15.256;2023-09-19T04:26:02;98811.94;;;18.52;97.10
70103;BME280;57470;50.034;15.256;2023-09-19T04:28:31;98823.03;;;18.65;97.09
70103;BME280;57470;50.034;15.256;2023-09-19T04:30:57;98826.78;;;18.15;99.54
70103;BME280;57470;50.034;15.256;2023-09-19T04:33:25;98827.09;;;18.61;97.53
70103;BME280;57470;50.034;15.256;2023-09-19T04:35:50;98840.38;;;18.62;97.32
70103;BME280;57470;50.034;15.256;2023-09-19T04:38:20;98840.38;;;18.62;97.35
70103;BME280;57470;50.034;15.256;2023-09-19T04:40:46;98846.44;;;18.48;97.61
70103;BME280;57470;50.034;15.256;2023-09-19T04:43:11;98856.22;;;18.65;97.40
70103;BME280;57470;50.034;15.256;2023-09-19T04:45:39;98864.13;;;18.51;98.53
70103;BME280;57470;50.034;15.256;2023-09-19T04:48:05;98855.53;;;18.63;97.91
70103;BME280;57470;50.034;15.256;2023-09-19T04:50:34;98867.66;;;18.51;98.19
70103;BME280;57470;50.034;15.256;2023-09-19T04:53:00;98863.97;;;18.60;98.38
70103;BME280;57470;50.034;15.256;2023-09-19T04:55:26;98873.22;;;18.66;98.07
70103;BME280;57470;50.034;15.256;2023-09-19T04:57:52;98868.66;;;18.50;99.37
70103;BME280;57470;50.034;15.256;2023-09-19T05:00:21;98877.25;;;18.62;97.86
70103;BME280;57470;50.034;15.256;2023-09-19T05:02:55;98875.75;;;18.67;97.66
70103;BME280;57470;50.034;15.256;2023-09-19T05:05:21;98875.41;;;18.62;98.31
70103;BME280;57470;50.034;15.256;2023-09-19T05:07:48;98847.44;;;18.47;98.69
70103;BME280;57470;50.034;15.256;2023-09-19T05:10:14;98854.38;;;18.42;98.25
70103;BME280;57470;50.034;15.256;2023-09-19T05:12:40;98867.28;;;18.54;98.57
70103;BME280;57470;50.034;15.256;2023-09-19T05:15:07;98868.00;;;18.64;97.93
70103;BME280;57470;50.034;15.256;2023-09-19T05:17:33;98872.69;;;18.62;97.90
70103;BME280;57470;50.034;15.256;2023-09-19T05:19:59;98859.88;;;17.83;100.00
70103;BME280;57470;50.034;15.256;2023-09-19T05:22:28;98862.91;;;18.53;97.84
70103;BME280;57470;50.034;15.256;2023-09-19T05:24:54;98870.34;;;18.67;96.98
70103;BME280;57470;50.034;15.256;2023-09-19T05:27:19;98868.34;;;18.69;96.02
70103;BME280;57470;50.034;15.256;2023-09-19T05:29:46;98873.34;;;18.72;96.72
70103;BME280;57470;50.034;15.256;2023-09-19T05:32:11;98879.09;;;18.61;95.99
70103;BME280;57470;50.034;15.256;2023-09-19T05:34:37;98871.38;;;18.58;96.76
70103;BME280;57470;50.034;15.256;2023-09-19T05:37:04;98875.59;;;18.61;96.04
70103;BME280;57470;50.034;15.256;2023-09-19T05:39:30;98887.19;;;18.69;96.09
70103;BME280;57470;50.034;15.256;2023-09-19T05:41:55;98881.28;;;18.74;96.08
70103;BME280;57470;50.034;15.256;2023-09-19T05:44:22;98883.47;;;18.54;96.42
70103;BME280;57470;50.034;15.256;2023-09-19T05:46:47;98882.31;;;18.65;96.04
70103;BME280;57470;50.034;15.256;2023-09-19T05:49:13;98887.69;;;18.65;96.49
70103;BME280;57470;50.034;15.256;2023-09-19T05:51:39;98888.53;;;18.65;96.90
70103;BME280;57470;50.034;15.256;2023-09-19T05:54:04;98890.72;;;18.62;96.56
70103;BME280;57470;50.034;15.256;2023-09-19T05:56:30;98900.28;;;18.81;95.83
70103;BME280;57470;50.034;15.256;2023-09-19T05:58:55;98900.16;;;18.66;96.14
70103;BME280;57470;50.034;15.256;2023-09-19T06:01:20;98908.03;;;18.84;95.63
70103;BME280;57470;50.034;15.256;2023-09-19T06:03:46;98915.44;;;18.82;95.96
70103;BME280;57470;50.034;15.256;2023-09-19T06:06:11;98919.31;;;18.95;95.43
70103;BME280;57470;50.034;15.256;2023-09-19T06:08:37;98920.34;;;18.78;95.74
70103;BME280;57470;50.034;15.256;2023-09-19T06:11:03;98917.47;;;18.96;95.87
70103;BME280;57470;50.034;15.256;2023-09-19T06:13:30;98936.59;;;19.17;94.87
70103;BME280;57470;50.034;15.256;2023-09-19T06:15:59;98938.66;;;18.99;96.49
70103;BME280;57470;50.034;15.256;2023-09-19T06:18:28;98950.06;;;19.17;95.20
70103;BME280;57470;50.034;15.256;2023-09-19T06:20:54;98944.34;;;19.20;95.52
70103;BME280;57470;50.034;15.256;2023-09-19T06:23:21;98953.03;;;19.55;94.10
70103;BME280;57470;50.034;15.256;2023-09-19T06:25:46;98957.66;;;19.69;93.62
70103;BME280;57470;50.034;15.256;2023-09-19T06:28:11;98953.06;;;19.77;93.79
70103;BME280;57470;50.034;15.256;2023-09-19T06:30:38;98951.88;;;19.80;93.83
70103;BME280;57470;50.034;15.256;2023-09-19T06:33:07;98956.41;;;19.88;93.65
70103;BME280;57470;50.034;15.256;2023-09-19T06:35:33;98956.59;;;19.86;93.24
70103;BME280;57470;50.034;15.256;2023-09-19T06:38:01;98955.09;;;19.83;93.77
70103;BME280;57470;50.034;15.256;2023-09-19T06:40:28;98962.59;;;19.96;93.40
70103;BME280;57470;50.034;15.256;2023-09-19T06:42:56;98961.47;;;20.13;93.95
70103;BME280;57470;50.034;15.256;2023-09-19T06:45:22;98966.88;;;20.13;93.54
70103;BME280;57470;50.034;15.256;2023-09-19T06:47:49;98972.91;;;20.23;93.63
70103;BME280;57470;50.034;15.256;2023-09-19T06:50:15;98969.47;;;20.38;92.67
70103;BME280;57470;50.034;15.256;2023-09-19T06:52:44;98972.19;;;20.30;92.36
70103;BME280;57470;50.034;15.256;2023-09-19T06:55:11;98968.06;;;20.42;91.03
70103;BME280;57470;50.034;15.256;2023-09-19T06:57:38;98981.47;;;20.58;91.50
70103;BME280;57470;50.034;15.256;2023-09-19T07:00:06;98981.69;;;20.71;90.59
70103;BME280;57470;50.034;15.256;2023-09-19T07:02:44;98981.09;;;20.61;89.75
70103;BME280;57470;50.034;15.256;2023-09-19T07:05:09;98983.22;;;20.74;90.54
70103;BME280;57470;50.034;15.256;2023-09-19T07:07:35;98977.56;;;20.60;90.63
70103;BME280;57470;50.034;15.256;2023-09-19T07:10:01;98987.38;;;20.39;91.50
70103;BME280;57470;50.034;15.256;2023-09-19T07:12:27;98992.88;;;20.45;91.08
70103;BME280;57470;50.034;15.256;2023-09-19T07:14:52;98991.50;;;20.18;91.25
70103;BME280;57470;50.034;15.256;2023-09-19T07:17:18;98996.56;;;20.21;91.19
70103;BME280;57470;50.034;15.256;2023-09-19T07:19:44;99000.97;;;20.45;90.80
70103;BME280;57470;50.034;15.256;2023-09-19T07:22:10;99004.22;;;20.33;91.38
70103;BME280;57470;50.034;15.256;2023-09-19T07:24:35;99000.16;;;20.45;91.19
70103;BME280;57470;50.034;15.256;2023-09-19T07:27:02;99017.38;;;20.44;89.56
70103;BME280;57470;50.034;15.256;2023-09-19T07:29:28;99006.50;;;20.52;90.34
70103;BME280;57470;50.034;15.256;2023-09-19T07:31:53;99015.09;;;20.55;90.63
70103;BME280;57470;50.034;15.256;2023-09-19T07:34:19;99010.66;;;20.63;89.84
70103;BME280;57470;50.034;15.256;2023-09-19T07:36:47;99010.94;;;20.45;90.18
70103;BME280;57470;50.034;15.256;2023-09-19T07:39:12;99012.47;;;20.47;89.24
70103;BME280;57470;50.034;15.256;2023-09-19T07:41:38;99013.41;;;20.77;89.82
70103;BME280;57470;50.034;15.256;2023-09-19T07:44:03;99022.44;;;20.47;89.52
70103;BME280;57470;50.034;15.256;2023-09-19T07:46:28;99023.09;;;20.49;89.06
70103;BME280;57470;50.034;15.256;2023-09-19T07:48:57;99034.03;;;20.55;88.39
70103;BME280;57470;50.034;15.256;2023-09-19T07:51:22;99026.84;;;20.85;89.07
70103;BME280;57470;50.034;15.256;2023-09-19T07:53:49;99042.28;;;20.54;89.07
70103;BME280;57470;50.034;15.256;2023-09-19T07:56:14;99027.72;;;20.63;88.24
70103;BME280;57470;50.034;15.256;2023-09-19T07:58:40;99036.59;;;21.17;88.48
70103;BME280;57470;50.034;15.256;2023-09-19T08:01:09;99039.75;;;21.21;87.75
70103;BME280;57470;50.034;15.256;2023-09-19T08:03:36;99035.69;;;21.40;87.08
70103;BME280;57470;50.034;15.256;2023-09-19T08:06:06;99041.03;;;21.62;85.67
70103;BME280;57470;50.034;15.256;2023-09-19T08:08:32;99036.75;;;21.53;84.70
70103;BME280;57470;50.034;15.256;2023-09-19T08:10:59;99032.88;;;21.33;84.68
70103;BME280;57470;50.034;15.256;2023-09-19T08:13:26;99031.94;;;21.26;83.30
70103;BME280;57470;50.034;15.256;2023-09-19T08:15:52;99043.00;;;21.16;84.46
70103;BME280;57470;50.034;15.256;2023-09-19T08:18:21;99042.31;;;21.37;83.95
70103;BME280;57470;50.034;15.256;2023-09-19T08:20:51;99040.56;;;21.44;84.49
70103;BME280;57470;50.034;15.256;2023-09-19T08:23:16;99037.41;;;21.55;83.02
70103;BME280;57470;50.034;15.256;2023-09-19T08:25:46;99026.44;;;21.19;84.24
70103;BME280;57470;50.034;15.256;2023-09-19T08:28:11;99039.63;;;21.66;82.96
70103;BME280;57470;50.034;15.256;2023-09-19T08:30:39;99043.63;;;21.85;81.94
70103;BME280;57470;50.034;15.256;2023-09-19T08:33:06;99040.19;;;21.77;81.75
70103;BME280;57470;50.034;15.256;2023-09-19T08:35:32;99041.59;;;21.73;80.11
70103;BME280;57470;50.034;15.256;2023-09-19T08:37:58;99050.25;;;21.68;80.14
70103;BME280;57470;50.034;15.256;2023-09-19T08:40:25;99047.38;;;21.55;80.01
70103;BME280;57470;50.034;15.256;2023-09-19T08:42:56;99050.66;;;21.65;80.87
70103;BME280;57470;50.034;15.256;2023-09-19T08:45:22;99041.56;;;21.43;80.43
70103;BME280;57470;50.034;15.256;2023-09-19T08:48:24;99055.38;;;21.33;80.63
70103;BME280;57470;50.034;15.256;2023-09-19T08:51:06;99058.66;;;21.58;80.65
70103;BME280;57470;50.034;15.256;2023-09-19T08:54:08;99075.38;;;21.77;80.69
70103;BME280;57470;50.034;15.256;2023-09-19T08:56:35;99063.56;;;21.40;80.24
70103;BME280;57470;50.034;15.256;2023-09-19T08:59:05;99068.28;;;21.46;79.83
70103;BME280;57470;50.034;15.256;2023-09-19T09:01:35;99076.75;;;21.43;79.72
70103;BME280;57470;50.034;15.256;2023-09-19T09:04:02;99068.06;;;21.33;79.66
70103;BME280;57470;50.034;15.256;2023-09-19T09:06:29;99065.00;;;21.51;79.91
70103;BME280;57470;50.034;15.256;2023-09-19T09:08:55;99080.13;;;21.75;80.42
70103;BME280;57470;50.034;15.256;2023-09-19T09:11:21;99085.22;;;21.40;79.47
70103;BME280;57470;50.034;15.256;2023-09-19T09:13:49;99076.25;;;21.40;79.24
70103;BME280;57470;50.034;15.256;2023-09-19T09:16:15;99078.34;;;21.52;79.21
70103;BME280;57470;50.034;15.256;2023-09-19T09:18:47;99087.22;;;21.76;78.56
70103;BME280;57470;50.034;15.256;2023-09-19T09:21:19;99088.06;;;21.76;78.22
70103;BME280;57470;50.034;15.256;2023-09-19T09:23:47;99085.28;;;21.69;78.24
70103;BME280;57470;50.034;15.256;2023-09-19T09:26:12;99088.25;;;21.75;77.86
70103;BME280;57470;50.034;15.256;2023-09-19T09:28:44;99086.38;;;21.75;77.65
70103;BME280;57470;50.034;15.256;2023-09-19T09:31:22;99098.34;;;21.95;77.78
70103;BME280;57470;50.034;15.256;2023-09-19T09:33:57;99092.88;;;22.03;76.34
70103;BME280;57470;50.034;15.256;2023-09-19T09:36:37;99097.19;;;21.98;77.23
70103;BME280;57470;50.034;15.256;2023-09-19T09:39:04;99095.13;;;22.00;78.08
70103;BME280;57470;50.034;15.256;2023-09-19T09:41:41;99092.69;;;22.05;78.04
70103;BME280;57470;50.034;15.256;2023-09-19T09:44:17;99102.66;;;22.19;77.63
70103;BME280;57470;50.034;15.256;2023-09-19T09:46:45;99104.63;;;22.11;77.05
70103;BME280;57470;50.034;15.256;2023-09-19T09:49:24;99101.19;;;22.17;77.50
70103;BME280;57470;50.034;15.256;2023-09-19T09:52:06;99100.28;;;22.60;76.53
70103;BME280;57470;50.034;15.256;2023-09-19T09:54:34;99103.03;;;22.45;76.05
70103;BME280;57470;50.034;15.256;2023-09-19T09:57:04;99099.19;;;22.40;75.34
70103;BME280;57470;50.034;15.256;2023-09-19T09:59:50;99095.34;;;22.49;75.29
70103;BME280;57470;50.034;15.256;2023-09-19T10:02:20;99117.84;;;22.79;75.56
70103;BME280;57470;50.034;15.256;2023-09-19T10:04:57;99114.53;;;22.33;75.72
70103;BME280;57470;50.034;15.256;2023-09-19T10:07:35;99120.16;;;22.67;75.10
70103;BME280;57470;50.034;15.256;2023-09-19T10:10:06;99125.84;;;22.36;74.78
70103;BME280;57470;50.034;15.256;2023-09-19T10:12:43;99122.31;;;22.72;74.97
70103;BME280;57470;50.034;15.256;2023-09-19T10:15:11;99117.09;;;23.06;74.04
70103;BME280;57470;50.034;15.256;2023-09-19T10:17:36;99125.94;;;23.15;73.75
70103;BME280;57470;50.034;15.256;2023-09-19T10:20:09;99117.66;;;22.80;76.14
70103;BME280;57470;50.034;15.256;2023-09-19T10:22:48;99114.47;;;23.19;74.29
70103;BME280;57470;50.034;15.256;2023-09-19T10:25:25;99106.41;;;23.26;73.26
70103;BME280;57470;50.034;15.256;2023-09-19T10:27:52;99100.63;;;23.08;72.51
70103;BME280;57470;50.034;15.256;2023-09-19T10:30:22;99109.72;;;22.50;74.01
70103;BME280;57470;50.034;15.256;2023-09-19T10:32:56;99115.34;;;22.99;73.24
70103;BME280;57470;50.034;15.256;2023-09-19T10:35:22;99113.06;;;23.02;73.98
70103;BME280;57470;50.034;15.256;2023-09-19T10:37:50;99105.06;;;22.94;73.23
70103;BME280;57470;50.034;15.256;2023-09-19T10:40:18;99100.38;;;23.31;72.79
70103;BME280;57470;50.034;15.256;2023-09-19T10:42:46;99093.38;;;23.99;73.22
70103;BME280;57470;50.034;15.256;2023-09-19T10:45:15;99095.19;;;23.85;72.12
70103;BME280;57470;50.034;15.256;2023-09-19T10:47:42;99093.13;;;23.87;70.85
70103;BME280;57470;50.034;15.256;2023-09-19T10:50:08;99088.28;;;23.82;71.45
70103;BME280;57470;50.034;15.256;2023-09-19T10:52:40;99093.06;;;23.80;70.09
70103;BME280;57470;50.034;15.256;2023-09-19T10:55:07;99100.75;;;24.05;69.86
70103;BME280;57470;50.034;15.256;2023-09-19T10:57:35;99094.44;;;23.98;69.81
70103;BME280;57470;50.034;15.256;2023-09-19T11:00:08;99104.66;;;24.23;69.19
70103;BME280;57470;50.034;15.256;2023-09-19T11:03:27;99099.94;;;24.45;67.29
70103;BME280;57470;50.034;15.256;2023-09-19T11:06:07;99094.97;;;24.62;68.83
70103;BME280;57470;50.034;15.256;2023-09-19T11:08:59;99101.09;;;24.77;67.68
70103;BME280;57470;50.034;15.256;2023-09-19T11:11:47;99093.84;;;24.02;68.63
70103;BME280;57470;50.034;15.256;2023-09-19T11:36:15;99095.88;;;23.93;69.42
70103;BME280;57470;50.034;15.256;2023-09-19T11:43:48;99090.22;;;24.84;67.99
70103;BME280;57470;50.034;15.256;2023-09-19T11:46:16;99082.13;;;25.03;68.06
70103;BME280;57470;50.034;15.256;2023-09-19T11:48:48;99078.50;;;24.77;65.82
70103;BME280;57470;50.034;15.256;2023-09-19T11:51:18;99073.75;;;25.51;66.04
70103;BME280;57470;50.034;15.256;2023-09-19T11:53:54;99081.44;;;26.13;64.72
70103;BME280;57470;50.034;15.256;2023-09-19T11:56:22;99078.97;;;25.99;62.56
70103;BME280;57470;50.034;15.256;2023-09-19T11:58:53;99080.91;;;25.59;63.89
70103;BME280;57470;50.034;15.256;2023-09-19T12:01:38;99090.06;;;26.10;60.64
70103;BME280;57470;50.034;15.256;2023-09-19T12:04:11;99088.88;;;25.73;60.67
70103;BME280;57470;50.034;15.256;2023-09-19T12:06:37;99096.63;;;25.76;63.73
70103;BME280;57470;50.034;15.256;2023-09-19T12:09:04;99094.53;;;25.39;63.17
70103;BME280;57470;50.034;15.256;2023-09-19T12:11:41;99092.41;;;25.81;63.47
70103;BME280;57470;50.034;15.256;2023-09-19T12:14:09;99083.44;;;25.67;63.00
70103;BME280;57470;50.034;15.256;2023-09-19T12:16:35;99096.09;;;26.19;62.28
70103;BME280;57470;50.034;15.256;2023-09-19T12:19:18;99102.34;;;24.68;63.48
70103;BME280;57470;50.034;15.256;2023-09-19T12:21:54;99101.31;;;24.89;64.48
70103;BME280;57470;50.034;15.256;2023-09-19T12:24:19;99100.50;;;24.34;64.81
70103;BME280;57470;50.034;15.256;2023-09-19T12:26:46;99108.31;;;24.16;65.02
70103;BME280;57470;50.034;15.256;2023-09-19T12:29:20;99095.16;;;24.13;64.74
70103;BME280;57470;50.034;15.256;2023-09-19T12:31:54;99094.91;;;24.08;64.74
70103;BME280;57470;50.034;15.256;2023-09-19T12:34:40;99094.56;;;24.72;65.19
70103;BME280;57470;50.034;15.256;2023-09-19T12:37:14;99090.34;;;25.50;63.87
70103;BME280;57470;50.034;15.256;2023-09-19T12:40:03;99090.34;;;25.50;62.97
70103;BME280;57470;50.034;15.256;2023-09-19T12:42:40;99089.28;;;25.37;61.31
70103;BME280;57470;50.034;15.256;2023-09-19T12:45:07;99085.66;;;24.37;63.81
70103;BME280;57470;50.034;15.256;2023-09-19T12:47:34;99078.50;;;24.77;64.04
70103;BME280;57470;50.034;15.256;2023-09-19T12:50:14;99079.94;;;24.66;62.00
70103;BME280;57470;50.034;15.256;2023-09-19T12:52:47;99086.22;;;24.80;62.95
70103;BME280;57470;50.034;15.256;2023-09-19T12:55:29;99083.50;;;24.80;62.40
70103;BME280;57470;50.034;15.256;2023-09-19T12:58:09;99085.28;;;24.40;62.76
70103;BME280;57470;50.034;15.256;2023-09-19T13:00:39;99076.81;;;24.69;63.67
70103;BME280;57470;50.034;15.256;2023-09-19T13:03:16;99078.69;;;24.75;64.25
70103;BME280;57470;50.034;15.256;2023-09-19T13:05:56;99076.38;;;24.72;63.98
70103;BME280;57470;50.034;15.256;2023-09-19T13:08:26;99068.91;;;24.26;62.05
70103;BME280;57470;50.034;15.256;2023-09-19T13:13:41;99066.44;;;25.38;60.29
70103;BME280;57470;50.034;15.256;2023-09-19T13:16:07;99064.78;;;25.64;59.60
70103;BME280;57470;50.034;15.256;2023-09-19T13:18:50;99065.59;;;25.45;60.63
70103;BME280;57470;50.034;15.256;2023-09-19T13:21:33;99062.47;;;25.28;59.34
70103;BME280;57470;50.034;15.256;2023-09-19T13:24:21;99057.84;;;25.74;59.50
70103;BME280;57470;50.034;15.256;2023-09-19T13:26:48;99066.63;;;25.83;58.80
70103;BME280;57470;50.034;15.256;2023-09-19T13:29:14;99056.69;;;26.28;56.69
70103;BME280;57470;50.034;15.256;2023-09-19T13:31:48;99050.91;;;26.49;57.11
70103;BME280;57470;50.034;15.256;2023-09-19T13:34:15;99057.44;;;26.42;57.44
70103;BME280;57470;50.034;15.256;2023-09-19T13:36:43;99055.72;;;26.54;56.69
70103;BME280;57470;50.034;15.256;2023-09-19T13:39:09;99058.66;;;26.52;56.57